Time;durP1;ratioP1;P1;durP2;ratioP2;P2;SDS_P1;SDS_P2;PMS_P1;PMS_P2;Temp;Humidity;BMP_temperature;BMP_pressure;BME280_temperature;BME280_humidity;BME280_pressure;Samples;Min_cycle;Max_cycle;Signal;HPM_P1;HPM_P2
2023/12/10 00:00:04;;;;;;;;;;;7.70;99.90;;;;;;5109159;28;19920;-91
2023/12/10 00:02:31;;;;;;;;;;;7.80;99.90;;;;;;5109662;28;19921;-91
2023/12/10 00:04:58;;;;;;;;;;;7.80;99.90;;;;;;5110257;28;19920;-92
2023/12/10 00:07:26;;;;;;;;;;;7.90;99.90;;;;;;5110264;28;19920;-91
2023/12/10 00:09:53;;;;;;;;;;;7.80;99.90;;;;;;5108009;28;19927;-90
2023/12/10 00:12:20;;;;;;;;;;;7.80;99.90;;;;;;5106770;28;19928;-90
2023/12/10 00:14:52;;;;;;;;;;;7.80;99.90;;;;;;5106498;28;19920;-90
2023/12/10 00:17:19;;;;;;;;;;;7.90;99.90;;;;;;5105913;28;19924;-88
2023/12/10 00:19:45;;;;;;;;;;;7.80;99.90;;;;;;5104323;28;20120;-88
2023/12/10 00:22:12;;;;;;;;;;;7.90;99.90;;;;;;5103665;28;19926;-89
2023/12/10 00:24:42;;;;;;;;;;;7.80;99.90;;;;;;5103363;28;19928;-89
2023/12/10 00:27:09;;;;;;;;;;;7.80;99.90;;;;;;5104847;28;19924;-89
2023/12/10 00:29:36;;;;;;;;;;;7.80;99.90;;;;;;5104302;28;19928;-89
2023/12/10 00:32:02;;;;;;;;;;;7.80;99.90;;;;;;5104543;28;20111;-89
2023/12/10 00:34:29;;;;;;;;;;;7.80;99.90;;;;;;5106364;28;19920;-88
2023/12/10 00:36:56;;;;;;;;;;;7.80;99.90;;;;;;5111475;28;19920;-89
2023/12/10 00:39:23;;;;;;;;;;;7.80;99.90;;;;;;5108439;28;19931;-89
2023/12/10 00:41:51;;;;;;;;;;;7.80;99.90;;;;;;5113015;28;19920;-88
2023/12/10 00:44:18;;;;;;;;;;;7.80;99.90;;;;;;5099213;28;19931;-88
2023/12/10 00:46:45;;;;;;;;;;;7.70;99.90;;;;;;5111893;28;19908;-88
2023/12/10 00:52:00;;;;;;;;;;;7.60;99.90;;;;;;5113466;28;19930;-87
2023/12/10 00:54:27;;;;;;;;;;;7.50;99.90;;;;;;5117005;28;19927;-92
2023/12/10 00:56:55;;;;;;;;;;;7.50;99.90;;;;;;5110625;28;19920;-90
2023/12/10 00:59:22;;;;;;;;;;;7.50;99.90;;;;;;5112704;28;19923;-88
2023/12/10 01:01:49;;;;;;;;;;;7.40;99.90;;;;;;5102162;28;19920;-89
2023/12/10 01:04:16;;;;;;;;;;;7.40;99.90;;;;;;5103512;28;19920;-89
2023/12/10 01:06:42;;;;;;;;;;;7.40;99.90;;;;;;5109162;28;19935;-89
2023/12/10 01:09:09;;;;;;;;;;;7.40;99.90;;;;;;5106987;28;19920;-89
2023/12/10 01:11:36;;;;;;;;;;;7.30;99.90;;;;;;5106740;28;19980;-88
2023/12/10 01:14:04;;;;;;;;;;;7.30;99.90;;;;;;5108125;28;20185;-90
2023/12/10 01:16:31;;;;;;;;;;;7.30;99.90;;;;;;5111894;28;19920;-88
2023/12/10 01:18:58;;;;;;;;;;;7.30;99.90;;;;;;5119470;28;19931;-87
2023/12/10 01:21:52;;;;;;;;;;;7.30;99.90;;;;;;5119958;28;19908;-89
2023/12/10 01:24:20;;;;;;;;;;;7.40;99.90;;;;;;5118283;28;19942;-89
2023/12/10 01:26:47;;;;;;;;;;;7.30;99.90;;;;;;5118266;28;19920;-88
2023/12/10 01:29:15;;;;;;;;;;;7.30;99.90;;;;;;5116694;28;19920;-88
2023/12/10 01:31:42;;;;;;;;;;;7.30;99.90;;;;;;5113258;28;19920;-89
2023/12/10 01:34:09;;;;;;;;;;;7.20;99.90;;;;;;5111220;28;19927;-89
2023/12/10 01:36:36;;;;;;;;;;;7.20;99.90;;;;;;5111044;28;19920;-89
2023/12/10 01:39:03;;;;;;;;;;;7.20;99.90;;;;;;5108597;28;19931;-89
2023/12/10 01:41:30;;;;;;;;;;;7.10;99.90;;;;;;5109857;28;19928;-89
2023/12/10 01:43:57;;;;;;;;;;;7.10;99.90;;;;;;5110730;28;19920;-87
2023/12/10 01:46:25;;;;;;;;;;;7.10;99.90;;;;;;5118886;28;19920;-90
2023/12/10 01:48:52;;;;;;;;;;;7.10;99.90;;;;;;5113384;28;19920;-88
2023/12/10 01:51:19;;;;;;;;;;;7.10;99.90;;;;;;5117656;28;19935;-88
2023/12/10 01:53:46;;;;;;;;;;;7.10;99.90;;;;;;5118841;28;19927;-88
2023/12/10 01:56:13;;;;;;;;;;;7.10;99.90;;;;;;5114344;28;19984;-89
2023/12/10 01:58:40;;;;;;;;;;;7.10;99.90;;;;;;5109281;28;19927;-90
2023/12/10 02:01:07;;;;;;;;;;;7.10;99.90;;;;;;5109165;28;19940;-89
2023/12/10 02:03:35;;;;;;;;;;;7.10;99.90;;;;;;5110331;28;19920;-89
2023/12/10 02:06:02;;;;;;;;;;;7.10;99.90;;;;;;5113889;28;19920;-89
2023/12/10 02:08:29;;;;;;;;;;;7.20;99.90;;;;;;5114629;28;19951;-89
2023/12/10 02:10:56;;;;;;;;;;;7.20;99.90;;;;;;5117302;28;19951;-89
2023/12/10 02:13:24;;;;;;;;;;;7.20;99.90;;;;;;5113557;28;19920;-89
2023/12/10 02:15:50;;;;;;;;;;;7.20;99.90;;;;;;5108334;28;19947;-89
2023/12/10 02:18:19;;;;;;;;;;;7.20;99.90;;;;;;5106598;28;19935;-91
2023/12/10 02:20:48;;;;;;;;;;;7.20;99.90;;;;;;5106927;28;19920;-91
2023/12/10 02:23:22;;;;;;;;;;;7.20;99.90;;;;;;5103466;28;19920;-91
2023/12/10 02:25:51;;;;;;;;;;;7.20;99.90;;;;;;5105354;28;19920;-90
2023/12/10 02:28:22;;;;;;;;;;;7.20;99.90;;;;;;5097224;28;19920;-92
2023/12/10 02:30:49;;;;;;;;;;;7.30;99.90;;;;;;5112099;28;20013;-90
2023/12/10 02:33:15;;;;;;;;;;;7.30;99.90;;;;;;5098807;28;19920;-90
2023/12/10 02:35:42;;;;;;;;;;;7.30;99.90;;;;;;5107689;28;19920;-90
2023/12/10 02:38:09;;;;;;;;;;;7.30;99.90;;;;;;5109841;28;19927;-91
2023/12/10 02:40:36;;;;;;;;;;;7.30;99.90;;;;;;5110462;28;20194;-90
2023/12/10 02:43:04;;;;;;;;;;;7.30;99.90;;;;;;5109804;28;19920;-91
2023/12/10 02:57:11;;;;;;;;;;;7.40;99.90;;;;;;5084662;28;19928;-69
2023/12/10 02:59:39;;;;;;;;;;;7.40;99.90;;;;;;5104371;28;20252;-69
2023/12/10 03:02:05;;;;;;;;;;;7.40;99.90;;;;;;5112718;28;19920;-69
2023/12/10 03:04:32;;;;;;;;;;;7.40;99.90;;;;;;5104180;28;19920;-68
2023/12/10 03:06:59;;;;;;;;;;;7.40;99.90;;;;;;5104168;28;19920;-69
2023/12/10 03:09:25;;;;;;;;;;;7.40;99.90;;;;;;5104448;28;20017;-69
2023/12/10 03:11:52;;;;;;;;;;;7.40;99.90;;;;;;5104168;28;19927;-69
2023/12/10 03:14:19;;;;;;;;;;;7.30;99.90;;;;;;5103900;28;19920;-69
2023/12/10 03:16:47;;;;;;;;;;;7.30;99.90;;;;;;5103926;28;19920;-69
2023/12/10 03:19:13;;;;;;;;;;;7.30;99.90;;;;;;5103996;28;19927;-68
2023/12/10 03:21:40;;;;;;;;;;;7.30;99.90;;;;;;5100448;28;19935;-68
2023/12/10 03:24:07;;;;;;;;;;;7.40;99.90;;;;;;5103761;28;20091;-68
2023/12/10 03:26:33;;;;;;;;;;;7.40;99.90;;;;;;5103859;28;20150;-68
2023/12/10 03:29:00;;;;;;;;;;;7.40;99.90;;;;;;5103663;28;19942;-69
2023/12/10 03:31:27;;;;;;;;;;;7.40;99.90;;;;;;5103903;28;19948;-68
2023/12/10 03:33:55;;;;;;;;;;;7.40;99.90;;;;;;5103705;28;19939;-69
2023/12/10 03:36:21;;;;;;;;;;;7.40;99.90;;;;;;5103631;28;20248;-68
2023/12/10 03:38:48;;;;;;;;;;;7.40;99.90;;;;;;5103386;28;19943;-68
2023/12/10 03:41:15;;;;;;;;;;;7.30;99.90;;;;;;5103519;28;19947;-69
2023/12/10 03:43:41;;;;;;;;;;;7.40;99.90;;;;;;5100361;28;19927;-69
2023/12/10 03:46:08;;;;;;;;;;;7.40;99.90;;;;;;5103641;28;19955;-69
2023/12/10 03:48:35;;;;;;;;;;;7.40;99.90;;;;;;5107817;28;19927;-70
2023/12/10 03:51:03;;;;;;;;;;;7.40;99.90;;;;;;5103540;28;19921;-70
2023/12/10 03:53:29;;;;;;;;;;;7.40;99.90;;;;;;5103447;28;20116;-69
2023/12/10 03:55:56;;;;;;;;;;;7.40;99.90;;;;;;5103055;28;19920;-70
2023/12/10 03:58:23;;;;;;;;;;;7.40;99.90;;;;;;5104878;28;19920;-70
2023/12/10 04:00:49;;;;;;;;;;;7.40;99.90;;;;;;5103718;28;19931;-70
2023/12/10 04:03:16;;;;;;;;;;;7.40;99.90;;;;;;5103328;28;20115;-69
2023/12/10 04:05:43;;;;;;;;;;;7.40;99.90;;;;;;5102979;28;19931;-69
2023/12/10 04:08:11;;;;;;;;;;;7.40;99.90;;;;;;5103272;28;20224;-68
2023/12/10 04:10:37;;;;;;;;;;;7.40;99.90;;;;;;5103506;28;19979;-68
2023/12/10 04:13:04;;;;;;;;;;;7.40;99.90;;;;;;5114343;28;19927;-68
2023/12/10 04:15:31;;;;;;;;;;;7.30;99.90;;;;;;5109688;28;19959;-68
2023/12/10 04:17:57;;;;;;;;;;;7.40;99.90;;;;;;5103966;28;19927;-69
2023/12/10 04:20:24;;;;;;;;;;;7.30;99.90;;;;;;5100169;28;19958;-69
2023/12/10 04:22:50;;;;;;;;;;;7.30;99.90;;;;;;5103631;28;20090;-69
2023/12/10 04:25:18;;;;;;;;;;;7.30;99.90;;;;;;5103260;28;19943;-69
2023/12/10 04:27:45;;;;;;;;;;;7.20;99.90;;;;;;5096417;28;19952;-69
2023/12/10 04:30:12;;;;;;;;;;;7.20;99.90;;;;;;5090791;28;19959;-69
2023/12/10 04:32:39;;;;;;;;;;;7.20;99.90;;;;;;5100152;28;19920;-69
2023/12/10 04:35:06;;;;;;;;;;;7.10;99.90;;;;;;5102763;28;19927;-70
2023/12/10 04:37:32;;;;;;;;;;;7.00;99.90;;;;;;5088730;28;19921;-69
2023/12/10 04:39:59;;;;;;;;;;;7.00;99.90;;;;;;5095769;28;19921;-69
2023/12/10 04:42:27;;;;;;;;;;;7.00;99.90;;;;;;5101127;28;19920;-69
2023/12/10 04:44:54;;;;;;;;;;;6.90;99.90;;;;;;5098830;28;20178;-69
2023/12/10 04:47:21;;;;;;;;;;;6.80;99.90;;;;;;5102633;28;19920;-69
2023/12/10 04:49:47;;;;;;;;;;;6.80;99.90;;;;;;5102609;28;19920;-68
2023/12/10 04:52:14;;;;;;;;;;;6.80;99.90;;;;;;5105762;28;19962;-68
2023/12/10 04:54:40;;;;;;;;;;;6.70;99.90;;;;;;5100767;28;20193;-69
2023/12/10 04:57:07;;;;;;;;;;;6.70;99.90;;;;;;5106382;28;20129;-69
2023/12/10 04:59:35;;;;;;;;;;;6.70;99.90;;;;;;5106876;28;19927;-69
2023/12/10 05:02:02;;;;;;;;;;;6.60;99.90;;;;;;5106837;28;19927;-69
2023/12/10 05:04:29;;;;;;;;;;;6.60;99.90;;;;;;5106642;28;20178;-69
2023/12/10 05:06:55;;;;;;;;;;;6.60;99.90;;;;;;5106672;28;20125;-68
2023/12/10 05:09:22;;;;;;;;;;;6.60;99.90;;;;;;5106765;28;20113;-69
2023/12/10 05:11:49;;;;;;;;;;;6.60;99.90;;;;;;5106524;28;19920;-69
2023/12/10 05:14:15;;;;;;;;;;;6.60;99.90;;;;;;5097905;28;19931;-69
2023/12/10 05:16:43;;;;;;;;;;;6.60;99.90;;;;;;5106716;28;19927;-69
2023/12/10 05:19:10;;;;;;;;;;;6.60;99.90;;;;;;5105740;28;19928;-69
2023/12/10 05:21:37;;;;;;;;;;;6.50;99.90;;;;;;5106211;28;20209;-69
2023/12/10 05:24:04;;;;;;;;;;;6.60;99.90;;;;;;5105896;28;20217;-69
2023/12/10 05:26:30;;;;;;;;;;;6.60;99.90;;;;;;5105999;28;19927;-69
2023/12/10 05:28:57;;;;;;;;;;;6.50;99.90;;;;;;5106306;28;19958;-69
2023/12/10 05:31:24;;;;;;;;;;;6.50;99.90;;;;;;5105826;28;19920;-69
2023/12/10 05:33:52;;;;;;;;;;;6.50;99.90;;;;;;5105266;28;19920;-69
2023/12/10 05:36:18;;;;;;;;;;;6.50;99.90;;;;;;5103987;28;19950;-69
2023/12/10 05:38:45;;;;;;;;;;;6.40;99.90;;;;;;5105435;28;19920;-68
2023/12/10 05:41:12;;;;;;;;;;;6.40;99.90;;;;;;5105635;28;20206;-69
2023/12/10 05:43:38;;;;;;;;;;;6.40;99.90;;;;;;5105681;28;20252;-68
2023/12/10 05:46:05;;;;;;;;;;;6.40;99.90;;;;;;5105613;28;20112;-69
2023/12/10 05:48:33;;;;;;;;;;;6.30;99.90;;;;;;5111386;28;19919;-69
2023/12/10 05:51:03;;;;;;;;;;;6.40;99.90;;;;;;5111595;28;19937;-69
2023/12/10 05:53:29;;;;;;;;;;;6.30;99.90;;;;;;5102237;28;19920;-68
2023/12/10 05:55:56;;;;;;;;;;;6.30;99.90;;;;;;5105127;28;19947;-69
2023/12/10 05:58:23;;;;;;;;;;;6.30;99.90;;;;;;5105381;28;19920;-69
2023/12/10 06:00:49;;;;;;;;;;;6.20;99.90;;;;;;5105269;28;20209;-69
2023/12/10 06:03:16;;;;;;;;;;;6.20;99.90;;;;;;5105462;28;19943;-69
2023/12/10 06:05:43;;;;;;;;;;;6.20;99.90;;;;;;5105388;28;19943;-68
2023/12/10 06:08:11;;;;;;;;;;;6.20;99.90;;;;;;5105151;28;19951;-69
2023/12/10 06:10:37;;;;;;;;;;;6.10;99.90;;;;;;5105409;28;19946;-69
2023/12/10 06:13:04;;;;;;;;;;;6.10;99.90;;;;;;5099017;28;19920;-69
2023/12/10 06:15:31;;;;;;;;;;;6.10;99.90;;;;;;5105203;28;19978;-69
2023/12/10 06:17:57;;;;;;;;;;;6.10;99.90;;;;;;5104776;28;19928;-69
2023/12/10 06:20:25;;;;;;;;;;;6.10;99.90;;;;;;5104965;28;20201;-69
2023/12/10 06:22:51;;;;;;;;;;;6.10;99.90;;;;;;5098544;28;19920;-69
2023/12/10 06:25:19;;;;;;;;;;;6.00;99.90;;;;;;5104637;28;20228;-69
2023/12/10 06:27:46;;;;;;;;;;;6.10;99.90;;;;;;5112639;28;19926;-69
2023/12/10 06:30:13;;;;;;;;;;;6.10;99.90;;;;;;5105209;28;19926;-69
2023/12/10 06:32:40;;;;;;;;;;;6.00;99.90;;;;;;5104931;28;19920;-68
2023/12/10 06:35:07;;;;;;;;;;;6.00;99.90;;;;;;5104668;28;19920;-69
2023/12/10 06:37:34;;;;;;;;;;;6.00;99.90;;;;;;5104896;28;19962;-69
2023/12/10 06:40:00;;;;;;;;;;;6.10;99.90;;;;;;5104858;28;19927;-69
2023/12/10 06:42:28;;;;;;;;;;;6.10;99.90;;;;;;5104794;28;19920;-69
2023/12/10 06:44:55;;;;;;;;;;;6.10;99.90;;;;;;5104517;28;19923;-69
2023/12/10 06:47:22;;;;;;;;;;;6.10;99.90;;;;;;5104417;28;19920;-69
2023/12/10 06:49:49;;;;;;;;;;;6.10;99.90;;;;;;5104684;28;19919;-69
2023/12/10 06:52:15;;;;;;;;;;;6.10;99.90;;;;;;5104564;28;20115;-69
2023/12/10 06:54:42;;;;;;;;;;;6.10;99.90;;;;;;5099504;28;20201;-67
2023/12/10 06:57:09;;;;;;;;;;;6.20;99.90;;;;;;5101432;28;20158;-68
2023/12/10 06:59:37;;;;;;;;;;;6.10;99.90;;;;;;5104141;28;19920;-69
2023/12/10 07:02:04;;;;;;;;;;;6.20;99.90;;;;;;5104236;28;19920;-69
2023/12/10 07:04:30;;;;;;;;;;;6.20;99.90;;;;;;5100675;28;19920;-69
2023/12/10 07:06:57;;;;;;;;;;;6.30;99.90;;;;;;5103814;28;19935;-69
2023/12/10 07:09:23;;;;;;;;;;;6.20;99.90;;;;;;5101623;28;19955;-69
2023/12/10 07:11:51;;;;;;;;;;;6.30;99.90;;;;;;5104327;28;19951;-68
2023/12/10 07:14:17;;;;;;;;;;;6.30;99.90;;;;;;5095438;28;19920;-69
2023/12/10 07:16:45;;;;;;;;;;;6.40;99.90;;;;;;5103886;28;19966;-69
2023/12/10 07:19:12;;;;;;;;;;;6.40;99.90;;;;;;5104053;28;19955;-69
2023/12/10 07:21:39;;;;;;;;;;;6.40;99.90;;;;;;5103962;28;19926;-69
2023/12/10 07:24:05;;;;;;;;;;;6.50;99.90;;;;;;5103842;28;19920;-69
2023/12/10 07:26:32;;;;;;;;;;;6.40;99.90;;;;;;5104069;28;19943;-69
2023/12/10 07:28:59;;;;;;;;;;;6.50;99.90;;;;;;5110065;28;19920;-67
2023/12/10 07:31:26;;;;;;;;;;;6.50;99.90;;;;;;5110987;28;19920;-69
2023/12/10 07:33:54;;;;;;;;;;;6.60;99.90;;;;;;5103524;28;19927;-69
2023/12/10 07:36:20;;;;;;;;;;;6.60;99.90;;;;;;5100039;28;19920;-69
2023/12/10 07:38:47;;;;;;;;;;;6.70;99.90;;;;;;5111749;28;19924;-68
2023/12/10 07:41:14;;;;;;;;;;;6.70;99.90;;;;;;5103846;28;19981;-69
2023/12/10 07:43:41;;;;;;;;;;;6.70;99.90;;;;;;5103905;28;19963;-69
2023/12/10 07:46:07;;;;;;;;;;;6.70;99.90;;;;;;5103454;28;19920;-68
2023/12/10 07:48:34;;;;;;;;;;;6.70;99.90;;;;;;5103342;28;19920;-68
2023/12/10 07:51:02;;;;;;;;;;;6.70;99.90;;;;;;5103685;28;19975;-68
2023/12/10 07:53:29;;;;;;;;;;;6.70;99.90;;;;;;5103336;28;19943;-69
2023/12/10 07:55:56;;;;;;;;;;;6.70;99.90;;;;;;5103017;28;19920;-69
2023/12/10 07:58:23;;;;;;;;;;;6.70;99.90;;;;;;5103449;28;20117;-69
2023/12/10 08:00:49;;;;;;;;;;;6.70;99.90;;;;;;5103562;28;19920;-70
2023/12/10 08:03:16;;;;;;;;;;;6.70;99.90;;;;;;5095416;28;19927;-69
2023/12/10 08:05:43;;;;;;;;;;;6.70;99.90;;;;;;5103216;28;19983;-69
2023/12/10 08:08:11;;;;;;;;;;;6.60;99.90;;;;;;5102958;28;19920;-69
2023/12/10 08:10:38;;;;;;;;;;;6.60;99.90;;;;;;5102913;28;19952;-69
2023/12/10 08:13:04;;;;;;;;;;;6.70;99.90;;;;;;5103037;28;19952;-68
2023/12/10 08:15:31;;;;;;;;;;;6.70;99.90;;;;;;5103181;28;19978;-69
2023/12/10 08:17:58;;;;;;;;;;;6.70;99.90;;;;;;5103256;28;19920;-69
2023/12/10 08:20:24;;;;;;;;;;;6.80;99.90;;;;;;5103085;28;19920;-69
2023/12/10 08:22:51;;;;;;;;;;;6.80;99.90;;;;;;5102852;28;19958;-69
2023/12/10 08:25:19;;;;;;;;;;;6.80;99.90;;;;;;5103203;28;19920;-69
2023/12/10 08:27:46;;;;;;;;;;;6.80;99.90;;;;;;5107540;28;19928;-69
2023/12/10 08:30:13;;;;;;;;;;;6.80;99.90;;;;;;5107106;28;19927;-67
2023/12/10 08:32:40;;;;;;;;;;;6.80;99.90;;;;;;5108649;28;19920;-69
2023/12/10 08:35:07;;;;;;;;;;;6.90;99.90;;;;;;5108883;28;19926;-67
2023/12/10 08:37:33;;;;;;;;;;;6.90;99.90;;;;;;5121593;28;19943;-69
2023/12/10 08:40:01;;;;;;;;;;;6.90;99.90;;;;;;5106913;28;19920;-69
2023/12/10 08:42:30;;;;;;;;;;;7.00;99.90;;;;;;5107222;28;20249;-69
2023/12/10 08:44:57;;;;;;;;;;;7.00;99.90;;;;;;5099921;28;19920;-69
2023/12/10 08:47:23;;;;;;;;;;;7.00;99.90;;;;;;5099188;28;19956;-69
2023/12/10 08:49:50;;;;;;;;;;;7.00;99.90;;;;;;5106844;28;19927;-67
2023/12/10 08:52:17;;;;;;;;;;;7.00;99.90;;;;;;5106935;28;19951;-67
2023/12/10 08:54:44;;;;;;;;;;;7.00;99.90;;;;;;5106603;28;19928;-69
2023/12/10 08:57:10;;;;;;;;;;;7.00;99.90;;;;;;5106063;28;19928;-69
2023/12/10 08:59:39;;;;;;;;;;;7.10;99.90;;;;;;5106455;28;19920;-67
2023/12/10 09:02:05;;;;;;;;;;;7.10;99.90;;;;;;5106587;28;19974;-67
2023/12/10 09:04:32;;;;;;;;;;;7.10;99.90;;;;;;5106070;28;19931;-68
2023/12/10 09:06:59;;;;;;;;;;;7.10;99.90;;;;;;5106157;28;19920;-71
2023/12/10 09:09:25;;;;;;;;;;;7.20;99.90;;;;;;5106698;28;20005;-69
2023/12/10 09:11:52;;;;;;;;;;;7.20;99.90;;;;;;5106759;28;19955;-69
2023/12/10 09:14:19;;;;;;;;;;;7.30;99.90;;;;;;5106230;28;19927;-69
2023/12/10 09:16:47;;;;;;;;;;;7.30;99.90;;;;;;5106358;28;19927;-69
2023/12/10 09:19:16;;;;;;;;;;;7.30;99.90;;;;;;5106140;28;19920;-68
2023/12/10 09:21:43;;;;;;;;;;;7.30;99.90;;;;;;5106058;28;20144;-68
2023/12/10 09:24:10;;;;;;;;;;;7.30;99.90;;;;;;5105848;28;20162;-68
2023/12/10 09:26:36;;;;;;;;;;;7.30;99.90;;;;;;5106105;28;19986;-69
2023/12/10 09:29:04;;;;;;;;;;;7.40;99.90;;;;;;5107649;28;20121;-69
2023/12/10 09:31:31;;;;;;;;;;;7.40;99.90;;;;;;5112595;28;19920;-69
2023/12/10 09:33:59;;;;;;;;;;;7.40;99.90;;;;;;5105836;28;19935;-69
2023/12/10 09:36:25;;;;;;;;;;;7.40;99.90;;;;;;5105265;28;19920;-69
2023/12/10 09:38:52;;;;;;;;;;;7.50;99.90;;;;;;5106049;28;19920;-67
2023/12/10 09:41:19;;;;;;;;;;;7.50;99.90;;;;;;5107910;28;19927;-69
2023/12/10 09:43:45;;;;;;;;;;;7.50;99.90;;;;;;5107993;28;19927;-69
2023/12/10 09:46:12;;;;;;;;;;;7.60;99.90;;;;;;5106217;28;19927;-69
2023/12/10 09:48:40;;;;;;;;;;;7.60;99.90;;;;;;5105732;28;20144;-69
2023/12/10 09:51:08;;;;;;;;;;;7.70;99.90;;;;;;5105340;28;19920;-68
2023/12/10 09:53:35;;;;;;;;;;;7.70;99.90;;;;;;5106085;28;19952;-69
2023/12/10 09:56:02;;;;;;;;;;;7.80;99.90;;;;;;5096914;28;19970;-69
2023/12/10 09:58:29;;;;;;;;;;;7.90;99.90;;;;;;5105087;28;20006;-69
2023/12/10 10:00:55;;;;;;;;;;;7.90;99.90;;;;;;5105423;28;19927;-69
2023/12/10 10:03:22;;;;;;;;;;;8.00;99.90;;;;;;5105569;28;19920;-69
2023/12/10 10:05:48;;;;;;;;;;;8.00;99.90;;;;;;5105071;28;19920;-68
2023/12/10 10:08:17;;;;;;;;;;;8.00;99.90;;;;;;5105269;28;19920;-67
2023/12/10 10:10:43;;;;;;;;;;;8.00;99.90;;;;;;5105696;28;19920;-68
2023/12/10 10:13:10;;;;;;;;;;;8.00;99.90;;;;;;5105271;28;19920;-68
2023/12/10 10:15:37;;;;;;;;;;;8.10;99.90;;;;;;5104982;28;19927;-69
2023/12/10 10:18:05;;;;;;;;;;;8.20;99.90;;;;;;5094226;28;19920;-68
2023/12/10 10:20:32;;;;;;;;;;;8.20;99.90;;;;;;5102044;28;20237;-68
2023/12/10 10:22:59;;;;;;;;;;;8.30;99.90;;;;;;5104585;28;20254;-68
2023/12/10 10:25:27;;;;;;;;;;;8.30;99.90;;;;;;5104841;28;19920;-68
2023/12/10 10:27:53;;;;;;;;;;;8.40;99.90;;;;;;5100499;28;19927;-69
2023/12/10 10:30:20;;;;;;;;;;;8.40;99.90;;;;;;5105331;28;19927;-67
2023/12/10 10:32:48;;;;;;;;;;;8.40;99.90;;;;;;5105215;28;19920;-68
2023/12/10 10:35:15;;;;;;;;;;;8.50;99.90;;;;;;5104737;28;19920;-67
2023/12/10 10:37:42;;;;;;;;;;;8.50;99.90;;;;;;5104749;28;19927;-67
2023/12/10 10:40:09;;;;;;;;;;;8.40;99.90;;;;;;5104800;28;19978;-67
2023/12/10 10:42:37;;;;;;;;;;;8.40;99.90;;;;;;5104677;28;19920;-66
2023/12/10 10:45:04;;;;;;;;;;;8.40;99.90;;;;;;5102586;28;19963;-67
2023/12/10 10:47:32;;;;;;;;;;;8.50;99.90;;;;;;5104439;28;19930;-67
2023/12/10 10:49:59;;;;;;;;;;;8.60;99.90;;;;;;5103888;28;19921;-68
2023/12/10 10:52:27;;;;;;;;;;;8.60;99.90;;;;;;5101219;28;19920;-68
2023/12/10 10:54:54;;;;;;;;;;;8.80;99.90;;;;;;5102565;28;19962;-67
2023/12/10 10:57:27;;;;;;;;;;;8.80;99.90;;;;;;5104694;28;19920;-68
2023/12/10 10:59:56;;;;;;;;;;;8.90;99.90;;;;;;5099372;28;20194;-67
2023/12/10 11:02:23;;;;;;;;;;;9.00;99.90;;;;;;5102712;28;19920;-67
2023/12/10 11:04:50;;;;;;;;;;;8.90;99.90;;;;;;5103436;28;19920;-68
2023/12/10 11:07:19;;;;;;;;;;;8.90;99.90;;;;;;5103903;28;19927;-67
2023/12/10 11:09:56;;;;;;;;;;;8.90;99.90;;;;;;5103242;28;19927;-67
2023/12/10 11:12:41;;;;;;;;;;;8.90;99.90;;;;;;5096725;28;19959;-67
2023/12/10 11:15:22;;;;;;;;;;;8.80;99.90;;;;;;5102439;28;19927;-67
2023/12/10 11:17:50;;;;;;;;;;;8.70;99.90;;;;;;5103807;28;19920;-67
2023/12/10 11:20:29;;;;;;;;;;;8.70;99.90;;;;;;5104144;28;20146;-68
2023/12/10 11:22:55;;;;;;;;;;;8.60;99.90;;;;;;5103563;28;19981;-67
2023/12/10 11:25:22;;;;;;;;;;;8.60;99.90;;;;;;5103732;28;19920;-67
2023/12/10 11:27:49;;;;;;;;;;;8.70;99.90;;;;;;5103510;28;19920;-67
2023/12/10 11:30:17;;;;;;;;;;;8.70;99.90;;;;;;5103810;28;19926;-67
2023/12/10 11:32:44;;;;;;;;;;;8.60;99.90;;;;;;5103827;28;19928;-67
2023/12/10 11:35:10;;;;;;;;;;;8.60;99.90;;;;;;5103236;28;19928;-67
2023/12/10 11:37:37;;;;;;;;;;;8.50;99.90;;;;;;5103439;28;19955;-67
2023/12/10 11:40:04;;;;;;;;;;;8.60;99.90;;;;;;5103280;28;19920;-67
2023/12/10 11:42:31;;;;;;;;;;;8.50;99.90;;;;;;5103505;28;19920;-67
2023/12/10 11:44:58;;;;;;;;;;;8.50;99.90;;;;;;5103345;28;19983;-67
2023/12/10 11:47:26;;;;;;;;;;;8.40;99.90;;;;;;5103255;28;19920;-68
2023/12/10 11:49:55;;;;;;;;;;;8.30;99.90;;;;;;5103210;28;19927;-67
2023/12/10 11:52:22;;;;;;;;;;;8.30;99.90;;;;;;5103596;28;19928;-67
2023/12/10 11:54:48;;;;;;;;;;;8.20;99.90;;;;;;5094666;28;19920;-67
2023/12/10 11:57:15;;;;;;;;;;;8.20;99.90;;;;;;5103390;28;19927;-67
2023/12/10 11:59:46;;;;;;;;;;;8.30;99.90;;;;;;5102317;28;19920;-67
2023/12/10 12:02:14;;;;;;;;;;;8.50;99.90;;;;;;5102822;28;19924;-67
2023/12/10 12:04:43;;;;;;;;;;;8.70;99.90;;;;;;5103042;28;20378;-67
2023/12/10 12:07:22;;;;;;;;;;;8.90;99.90;;;;;;5103266;28;19951;-67
2023/12/10 12:09:49;;;;;;;;;;;8.90;99.90;;;;;;5102213;28;19927;-67
2023/12/10 12:12:16;;;;;;;;;;;9.00;99.90;;;;;;5102491;28;19959;-67
2023/12/10 12:14:43;;;;;;;;;;;9.00;99.90;;;;;;5102231;28;19920;-68
2023/12/10 12:17:10;;;;;;;;;;;9.00;99.90;;;;;;5102324;28;19927;-68
2023/12/10 12:19:36;;;;;;;;;;;9.10;99.90;;;;;;5102797;28;19920;-68
2023/12/10 12:22:05;;;;;;;;;;;9.00;99.90;;;;;;5102647;28;20113;-68
2023/12/10 12:24:31;;;;;;;;;;;9.00;99.90;;;;;;5102417;28;19920;-68
2023/12/10 12:27:08;;;;;;;;;;;9.20;99.90;;;;;;5102526;28;19921;-69
2023/12/10 12:29:35;;;;;;;;;;;9.20;99.90;;;;;;5102853;28;19927;-69
2023/12/10 12:32:02;;;;;;;;;;;9.10;99.90;;;;;;5099992;28;20210;-70
2023/12/10 12:34:29;;;;;;;;;;;9.10;99.90;;;;;;5095884;28;19920;-70
2023/12/10 12:36:56;;;;;;;;;;;9.10;99.90;;;;;;5102058;28;20099;-68
2023/12/10 12:39:24;;;;;;;;;;;9.00;99.90;;;;;;5099972;28;19920;-68
2023/12/10 12:41:51;;;;;;;;;;;8.90;99.90;;;;;;5103131;28;19920;-69
2023/12/10 12:44:18;;;;;;;;;;;8.90;99.90;;;;;;5111034;28;20202;-72
2023/12/10 12:46:45;;;;;;;;;;;8.90;99.90;;;;;;5102617;28;19920;-68
2023/12/10 12:49:11;;;;;;;;;;;8.80;99.90;;;;;;5096325;28;20106;-68
2023/12/10 12:51:38;;;;;;;;;;;8.80;99.90;;;;;;5103234;28;19920;-68
2023/12/10 12:54:05;;;;;;;;;;;8.80;99.90;;;;;;5110513;28;19920;-69
2023/12/10 12:56:33;;;;;;;;;;;8.80;99.90;;;;;;5102448;28;19962;-69
2023/12/10 12:59:00;;;;;;;;;;;8.80;99.90;;;;;;5102263;28;19920;-68
2023/12/10 13:01:27;;;;;;;;;;;8.70;99.90;;;;;;5101477;28;19928;-68
2023/12/10 13:03:54;;;;;;;;;;;8.70;99.90;;;;;;5100482;28;19921;-68
2023/12/10 13:06:20;;;;;;;;;;;8.70;99.90;;;;;;5104604;28;19927;-68
2023/12/10 13:08:47;;;;;;;;;;;8.60;99.90;;;;;;5105122;28;19928;-68
2023/12/10 13:11:14;;;;;;;;;;;8.60;99.90;;;;;;5105974;28;19919;-68
2023/12/10 13:13:42;;;;;;;;;;;8.60;99.90;;;;;;5105291;28;19920;-69
2023/12/10 13:16:09;;;;;;;;;;;8.50;99.90;;;;;;5103300;28;19935;-68
2023/12/10 13:18:36;;;;;;;;;;;8.40;99.90;;;;;;5104199;28;19928;-70
2023/12/10 13:21:03;;;;;;;;;;;8.40;99.90;;;;;;5112121;28;19923;-69
2023/12/10 13:23:30;;;;;;;;;;;8.30;99.90;;;;;;5104587;28;20218;-68
2023/12/10 13:25:57;;;;;;;;;;;8.20;99.90;;;;;;5104976;28;19920;-69
2023/12/10 13:28:24;;;;;;;;;;;8.10;99.90;;;;;;5102909;28;19928;-68
2023/12/10 13:30:53;;;;;;;;;;;8.10;99.90;;;;;;5111372;28;19928;-71
2023/12/10 13:33:20;;;;;;;;;;;8.10;99.90;;;;;;5089247;28;19941;-69
2023/12/10 13:35:46;;;;;;;;;;;8.10;99.90;;;;;;5104076;28;19928;-68
2023/12/10 13:38:12;;;;;;;;;;;8.10;99.90;;;;;;5104019;28;19935;-72
2023/12/10 13:40:39;;;;;;;;;;;8.00;99.90;;;;;;5109193;28;20181;-67
2023/12/10 13:43:05;;;;;;;;;;;8.00;99.90;;;;;;5103652;28;19939;-67
2023/12/10 13:45:32;;;;;;;;;;;8.00;99.90;;;;;;5103544;28;19920;-68
2023/12/10 13:48:01;;;;;;;;;;;8.00;99.90;;;;;;5103811;28;19927;-69
2023/12/10 13:50:27;;;;;;;;;;;8.00;99.90;;;;;;5103911;28;19962;-68
2023/12/10 13:52:54;;;;;;;;;;;7.90;99.90;;;;;;5104073;28;19943;-70
2023/12/10 13:55:21;;;;;;;;;;;7.90;99.90;;;;;;5096656;28;19920;-75
2023/12/10 13:57:47;;;;;;;;;;;7.90;99.90;;;;;;5103502;28;19920;-68
2023/12/10 14:00:15;;;;;;;;;;;7.80;99.90;;;;;;5103287;28;19920;-69
2023/12/10 14:02:41;;;;;;;;;;;7.80;99.90;;;;;;5106577;28;19931;-69
2023/12/10 14:05:11;;;;;;;;;;;7.80;99.90;;;;;;5101335;28;19920;-69
2023/12/10 14:07:38;;;;;;;;;;;7.80;99.90;;;;;;5106034;28;19958;-69
2023/12/10 14:10:05;;;;;;;;;;;7.70;99.90;;;;;;5104758;28;19927;-68
2023/12/10 14:12:32;;;;;;;;;;;7.70;99.90;;;;;;5099389;28;19942;-68
2023/12/10 14:14:59;;;;;;;;;;;7.60;99.90;;;;;;5105131;28;20152;-68
2023/12/10 14:17:24;;;;;;;;;;;7.60;99.90;;;;;;5105306;28;19920;-68
2023/12/10 14:19:51;;;;;;;;;;;7.60;99.90;;;;;;5104831;28;19938;-67
2023/12/10 14:22:19;;;;;;;;;;;7.60;99.90;;;;;;5104533;28;20229;-68
2023/12/10 14:24:46;;;;;;;;;;;7.50;99.90;;;;;;5104934;28;19962;-72
2023/12/10 14:27:12;;;;;;;;;;;7.60;99.90;;;;;;5104753;28;19920;-69
2023/12/10 14:29:39;;;;;;;;;;;7.60;99.90;;;;;;5105140;28;19961;-68
2023/12/10 14:32:06;;;;;;;;;;;7.50;99.90;;;;;;5103739;28;19927;-67
2023/12/10 14:34:33;;;;;;;;;;;7.60;99.90;;;;;;5104190;28;19920;-68
2023/12/10 14:36:59;;;;;;;;;;;7.50;99.90;;;;;;5111886;28;19927;-69
2023/12/10 14:39:27;;;;;;;;;;;7.60;99.90;;;;;;5108661;28;19920;-69
2023/12/10 14:41:54;;;;;;;;;;;7.60;99.90;;;;;;5104136;28;19927;-69
2023/12/10 14:44:21;;;;;;;;;;;7.50;99.90;;;;;;5104124;28;19920;-69